Aérodrome :
LOGIN :

S'inscrire | Disclaimer

   EN    FR    IT 

 










Légende :    VFR   VFR Marginal   IFR   IFR Intensif   IFR Très Intensif
Visi : 
Plafond : 
>= 8 km
>= 3000ft
5 à 8 km
1000 à 3000 ft
1500m à 5 km
500 à 1000 ft
800 à 1500m
200 à 500 ft
< 800m
< 200 ft
Symboles :   Orages  Brouillard  Fortes neiges  Fortes précipitations  Vent > 20 kt
SIGMETs :   Divers  Orages  Givrage  Turbulence  Onde Orograph.  Cendres Volcan.







- Altitude de l'aérodrome : 1079 ft


ETIK - Illesheim Air Base

DERNIER METAR :
  • 211056Z AUTO 06008KT 9999 CLR 22/10 A2998 RMK AO2 RAB0956E48RAB49 SLP147 P0000 T02200102 $

METARs EXPIRÉS :
  • 210956Z AUTO 07009G16KT 9999 CLR 21/10 A2999 RMK AO2 RAB0856 SLP150 P0000 T02090104 $
  • 210856Z AUTO 08008KT 9999 CLR 20/10 A3001 RMK AO2 RAE46RAB47E48RAB49 SLP157 P0000 60000 T01970104 57013 $
  • 210758Z AUTO 08006KT 9999 CLR 18/10 A3002 RMK AO2 SLP162 $

Prévision TAF périmée.
Pas de NOTAMs connus pour ce terrain.



MET'MAP, la Météo Aéronautique d'un coup d'oeil ! - Copyright ORBIFLY Décembre 2007 - Disclaimer

ORBIFLY MET'MAP TEAM :

Programmation & Développement : Alexandra Zaïnal
Conception & Développement : Baudouin d'Aumeries
Co-Programmation & Développement : Marc-Olivier Méhu
Soutien technique & logistique : Manuel Goepfert

Contact : metmap@orbifly.com




SOURCES & CREDITS :

   NOAA